Details From LTAI - Antalya
To UDYZ - Zvartnots
Flight Number -
Tags Generated
Created
Modified
Stats Distance 667 nm / 1,235 km
Max Altitude 0 ft / 0 m
Waypoints 5
Social Downloads 0
Likes 0
Share VATSIM

Download

Looking for another format? Having issues loading an existing format? Contact us
Advertisement - Login to hide

Notes

Generated

Route

LTAI ERCIS TALIL ZVR UDYZ

ID Type Via Altitude Latitude Longitude Leg Dist Tot Dist Heading (true) Name
O LTAI APT - 0 ft / 0 m 36.91569˚ 30.79237˚ - 0 nm - -
ERCIS FIX - 0 ft / 0 m 38.27028˚ 34.94361˚ 213 nm 213 nm 66° / 69° -
TALIL FIX - 0 ft / 0 m 39.18889˚ 39.97222˚ 241 nm 455 nm 75° / 78° -
ZVR VOR - 0 ft / 0 m 40.14719˚ 44.36696˚ 211 nm 666 nm 73° / 76° YEREVAN VOR-DME
O UDYZ APT - 0 ft / 0 m 40.14715˚ 44.37329˚ 0 nm 666 nm 90° / 90° -

Altitude Profile

Advertisement - Login to hide

Weather


0- 5 10 15 20 25 30 35+ Temperature / ° C

Clouds and Precipitation
Forecast for 2018-05-27 18:00 UTC. Updated 3 hours ago

Ground ~20,000 ft ~40,000 ft Winds

LTAI

Details ICAO LTAI (AYT)
Name Antalya
Region Turkey
Timezone Europe/Istanbul (UTC+3.0)
Stats Elevation 177 ft / 54 m (AMSL)
Location 36.899598° 30.797507°
Runways 3
Magnetic Variation 5.113° E

METAR

LTAI 272020Z VRB01KT CAVOK 22/19 Q1011 NOSIG

Decode

TAF

Not found

Departure Runways

ID Width Length Bearing (true) Bearing (mag) Surface Threshold Offset Overrun Length
18C 148 ft / 45 m 11,137 ft / 3,394 m 186.26° 181.15° Concrete 0 ft / 0 m 197 ft / 60 m
18L 148 ft / 45 m 11,180 ft / 3,408 m 186.28° 181.17° Concrete 0 ft / 0 m 197 ft / 60 m
18R 148 ft / 45 m 9,789 ft / 2,984 m 186.25° 181.14° Asphalt 0 ft / 0 m 984 ft / 300 m
36C 148 ft / 45 m 11,137 ft / 3,394 m 6.25° 1.14° Concrete 0 ft / 0 m 197 ft / 60 m
36L 148 ft / 45 m 9,789 ft / 2,984 m 6.25° 1.14° Asphalt 0 ft / 0 m 984 ft / 300 m
36R 148 ft / 45 m 11,180 ft / 3,408 m 6.28° 1.17° Concrete 0 ft / 0 m 197 ft / 60 m

UDYZ

Details ICAO UDYZ (EVN)
Name ZVARTNOTS
Region Armenia
Timezone Asia/Yerevan (UTC+4.0)
Stats Elevation 2,838 ft / 865 m (AMSL)
Location 40.147271° 44.395880°
Runways 1
Magnetic Variation 6.235° E

METAR

UDYZ 272030Z 03009KT 9999 FEW046 21/09 Q1019 R09/010070 NOSIG

Decode

TAF

TAF UDYZ 271715Z 2718/2818 04006KT 9999 FEW040 TEMPO 2718/2721 VRB20G30KT -TSRA BKN030CB

Decode

Destination Runways

ID Width Length Bearing (true) Bearing (mag) Surface Threshold Offset Overrun Length
09 184 ft / 56 m 12,601 ft / 3,841 m 89.59° 83.36° Asphalt 0 ft / 0 m 0 ft / 0 m
27 184 ft / 56 m 12,601 ft / 3,841 m 269.62° 263.39° Asphalt 0 ft / 0 m 0 ft / 0 m

Approach Navaids

Runway Type Ident Frequency Range Bearing (true) Bearing (mag) Slope Elevation
09 Localiser IZR 108.10 MHz 18 nm / 33 km 89.83° 83.60° - 2,838 ft / 865 m (AMSL)
09 Glidescope IZR 108.10 MHz 10 nm / 19 km 89.61° 83.37° 2.67° 2,838 ft / 865 m (AMSL)

Popular Alternatives